sensor_id;sensor_type;location;lat;lon;timestamp;temperature;humidity
66752;SHT31;53663;42.676;23.238;2023-06-26T00:00:15;19.97;78.80
66752;SHT31;53663;42.676;23.238;2023-06-26T00:02:40;20.01;78.81
66752;SHT31;53663;42.676;23.238;2023-06-26T00:05:06;19.94;78.96
66752;SHT31;53663;42.676;23.238;2023-06-26T00:07:32;19.93;79.12
66752;SHT31;53663;42.676;23.238;2023-06-26T00:10:02;19.89;79.11
66752;SHT31;53663;42.676;23.238;2023-06-26T00:12:28;20.00;78.85
66752;SHT31;53663;42.676;23.238;2023-06-26T00:14:54;19.90;79.06
66752;SHT31;53663;42.676;23.238;2023-06-26T00:17:20;19.89;79.14
66752;SHT31;53663;42.676;23.238;2023-06-26T00:19:46;19.86;79.25
66752;SHT31;53663;42.676;23.238;2023-06-26T00:22:11;19.77;79.40
66752;SHT31;53663;42.676;23.238;2023-06-26T00:24:37;19.76;79.63
66752;SHT31;53663;42.676;23.238;2023-06-26T00:27:02;19.76;79.61
66752;SHT31;53663;42.676;23.238;2023-06-26T00:29:28;19.73;79.74
66752;SHT31;53663;42.676;23.238;2023-06-26T00:31:53;19.70;79.89
66752;SHT31;53663;42.676;23.238;2023-06-26T00:34:19;19.72;79.88
66752;SHT31;53663;42.676;23.238;2023-06-26T00:36:45;19.73;79.73
66752;SHT31;53663;42.676;23.238;2023-06-26T00:39:11;19.76;79.61
66752;SHT31;53663;42.676;23.238;2023-06-26T00:41:37;19.72;79.78
66752;SHT31;53663;42.676;23.238;2023-06-26T00:44:04;19.65;79.91
66752;SHT31;53663;42.676;23.238;2023-06-26T00:46:31;19.56;80.41
66752;SHT31;53663;42.676;23.238;2023-06-26T00:48:58;19.54;80.39
66752;SHT31;53663;42.676;23.238;2023-06-26T00:51:26;19.45;80.80
66752;SHT31;53663;42.676;23.238;2023-06-26T00:53:51;19.45;80.74
66752;SHT31;53663;42.676;23.238;2023-06-26T00:56:18;19.42;81.14
66752;SHT31;53663;42.676;23.238;2023-06-26T00:58:44;19.48;80.76
66752;SHT31;53663;42.676;23.238;2023-06-26T01:01:11;19.49;80.83
66752;SHT31;53663;42.676;23.238;2023-06-26T01:03:43;19.55;80.72
66752;SHT31;53663;42.676;23.238;2023-06-26T01:06:11;19.59;80.24
66752;SHT31;53663;42.676;23.238;2023-06-26T01:08:39;19.61;80.25
66752;SHT31;53663;42.676;23.238;2023-06-26T01:11:05;19.62;80.26
66752;SHT31;53663;42.676;23.238;2023-06-26T01:13:31;19.56;80.23
66752;SHT31;53663;42.676;23.238;2023-06-26T01:15:58;19.48;80.27
66752;SHT31;53663;42.676;23.238;2023-06-26T01:18:25;19.49;80.22
66752;SHT31;53663;42.676;23.238;2023-06-26T01:20:51;19.42;80.45
66752;SHT31;53663;42.676;23.238;2023-06-26T01:23:24;19.36;80.42
66752;SHT31;53663;42.676;23.238;2023-06-26T01:26:19;19.25;80.50
66752;SHT31;53663;42.676;23.238;2023-06-26T01:28:46;19.15;80.88
66752;SHT31;53663;42.676;23.238;2023-06-26T01:31:13;19.08;80.98
66752;SHT31;53663;42.676;23.238;2023-06-26T01:33:40;18.97;81.22
66752;SHT31;53663;42.676;23.238;2023-06-26T01:36:07;18.97;81.22
66752;SHT31;53663;42.676;23.238;2023-06-26T01:38:35;18.91;81.17
66752;SHT31;53663;42.676;23.238;2023-06-26T01:41:00;18.97;81.16
66752;SHT31;53663;42.676;23.238;2023-06-26T01:46:43;18.98;80.64
66752;SHT31;53663;42.676;23.238;2023-06-26T01:51:46;18.84;81.11
66752;SHT31;53663;42.676;23.238;2023-06-26T01:54:18;18.86;81.02
66752;SHT31;53663;42.676;23.238;2023-06-26T01:56:45;18.83;81.07
66752;SHT31;53663;42.676;23.238;2023-06-26T01:59:13;18.86;81.05
66752;SHT31;53663;42.676;23.238;2023-06-26T02:01:40;18.84;81.00
66752;SHT31;53663;42.676;23.238;2023-06-26T02:04:06;18.90;80.87
66752;SHT31;53663;42.676;23.238;2023-06-26T02:06:31;18.94;80.60
66752;SHT31;53663;42.676;23.238;2023-06-26T02:08:58;18.91;80.69
66752;SHT31;53663;42.676;23.238;2023-06-26T02:11:23;18.91;80.45
66752;SHT31;53663;42.676;23.238;2023-06-26T02:13:49;18.80;80.70
66752;SHT31;53663;42.676;23.238;2023-06-26T02:16:15;18.70;80.88
66752;SHT31;53663;42.676;23.238;2023-06-26T02:18:41;18.73;81.13
66752;SHT31;53663;42.676;23.238;2023-06-26T02:21:08;18.71;81.18
66752;SHT31;53663;42.676;23.238;2023-06-26T02:23:34;18.66;81.36
66752;SHT31;53663;42.676;23.238;2023-06-26T02:26:00;18.63;81.54
66752;SHT31;53663;42.676;23.238;2023-06-26T02:28:25;18.62;81.41
66752;SHT31;53663;42.676;23.238;2023-06-26T02:30:51;18.56;81.70
66752;SHT31;53663;42.676;23.238;2023-06-26T02:33:16;18.52;81.94
66752;SHT31;53663;42.676;23.238;2023-06-26T02:35:42;18.50;81.68
66752;SHT31;53663;42.676;23.238;2023-06-26T02:38:09;18.45;81.77
66752;SHT31;53663;42.676;23.238;2023-06-26T02:40:35;18.43;81.80
66752;SHT31;53663;42.676;23.238;2023-06-26T02:43:01;18.35;82.05
66752;SHT31;53663;42.676;23.238;2023-06-26T02:45:27;18.38;81.93
66752;SHT31;53663;42.676;23.238;2023-06-26T02:47:53;18.38;81.93
66752;SHT31;53663;42.676;23.238;2023-06-26T02:50:19;18.41;81.86
66752;SHT31;53663;42.676;23.238;2023-06-26T02:53:04;18.33;82.05
66752;SHT31;53663;42.676;23.238;2023-06-26T02:55:30;18.31;82.09
66752;SHT31;53663;42.676;23.238;2023-06-26T02:57:56;18.33;82.10
66752;SHT31;53663;42.676;23.238;2023-06-26T03:00:22;18.24;82.18
66752;SHT31;53663;42.676;23.238;2023-06-26T03:02:50;18.28;82.20
66752;SHT31;53663;42.676;23.238;2023-06-26T03:05:18;18.28;82.06
66752;SHT31;53663;42.676;23.238;2023-06-26T03:07:44;18.24;82.11
66752;SHT31;53663;42.676;23.238;2023-06-26T03:10:10;18.22;82.25
66752;SHT31;53663;42.676;23.238;2023-06-26T03:12:35;18.24;82.19
66752;SHT31;53663;42.676;23.238;2023-06-26T03:15:00;18.26;82.40
66752;SHT31;53663;42.676;23.238;2023-06-26T03:17:26;18.29;82.33
66752;SHT31;53663;42.676;23.238;2023-06-26T03:19:56;18.35;82.32
66752;SHT31;53663;42.676;23.238;2023-06-26T03:22:27;18.33;82.42
66752;SHT31;53663;42.676;23.238;2023-06-26T03:24:53;18.41;82.08
66752;SHT31;53663;42.676;23.238;2023-06-26T03:27:18;18.43;82.16
66752;SHT31;53663;42.676;23.238;2023-06-26T03:29:44;18.45;82.24
66752;SHT31;53663;42.676;23.238;2023-06-26T03:32:10;18.48;82.08
66752;SHT31;53663;42.676;23.238;2023-06-26T03:34:36;18.52;82.12
66752;SHT31;53663;42.676;23.238;2023-06-26T03:37:02;18.60;81.72
66752;SHT31;53663;42.676;23.238;2023-06-26T03:39:28;18.64;81.69
66752;SHT31;53663;42.676;23.238;2023-06-26T03:41:53;18.71;81.54
66752;SHT31;53663;42.676;23.238;2023-06-26T03:44:22;18.87;81.10
66752;SHT31;53663;42.676;23.238;2023-06-26T03:46:48;18.91;80.60
66752;SHT31;53663;42.676;23.238;2023-06-26T03:49:13;18.91;80.61
66752;SHT31;53663;42.676;23.238;2023-06-26T03:51:39;18.97;80.54
66752;SHT31;53663;42.676;23.238;2023-06-26T03:54:05;19.00;80.36
66752;SHT31;53663;42.676;23.238;2023-06-26T03:56:30;19.06;80.20
66752;SHT31;53663;42.676;23.238;2023-06-26T03:58:56;19.12;79.84
66752;SHT31;53663;42.676;23.238;2023-06-26T04:01:21;19.07;79.71
66752;SHT31;53663;42.676;23.238;2023-06-26T04:03:48;19.06;79.74
66752;SHT31;53663;42.676;23.238;2023-06-26T04:06:14;19.15;79.69
66752;SHT31;53663;42.676;23.238;2023-06-26T04:08:39;19.24;79.59
66752;SHT31;53663;42.676;23.238;2023-06-26T04:11:05;19.27;79.43
66752;SHT31;53663;42.676;23.238;2023-06-26T04:13:30;19.28;79.13
66752;SHT31;53663;42.676;23.238;2023-06-26T04:15:56;19.32;79.16
66752;SHT31;53663;42.676;23.238;2023-06-26T04:18:21;19.27;79.41
66752;SHT31;53663;42.676;23.238;2023-06-26T04:21:08;19.32;79.13
66752;SHT31;53663;42.676;23.238;2023-06-26T04:23:34;19.36;78.92
66752;SHT31;53663;42.676;23.238;2023-06-26T04:26:00;19.45;78.65
66752;SHT31;53663;42.676;23.238;2023-06-26T04:28:27;19.51;78.42
66752;SHT31;53663;42.676;23.238;2023-06-26T04:30:53;19.73;78.25
66752;SHT31;53663;42.676;23.238;2023-06-26T04:33:18;20.01;77.43
66752;SHT31;53663;42.676;23.238;2023-06-26T04:35:44;20.38;76.05
66752;SHT31;53663;42.676;23.238;2023-06-26T04:38:11;20.56;75.39
66752;SHT31;53663;42.676;23.238;2023-06-26T04:40:37;20.85;74.94
66752;SHT31;53663;42.676;23.238;2023-06-26T04:43:02;21.02;73.92
66752;SHT31;53663;42.676;23.238;2023-06-26T04:45:28;21.37;73.38
66752;SHT31;53663;42.676;23.238;2023-06-26T04:47:53;21.80;72.06
66752;SHT31;53663;42.676;23.238;2023-06-26T04:50:19;22.15;71.15
66752;SHT31;53663;42.676;23.238;2023-06-26T04:52:44;22.29;70.03
66752;SHT31;53663;42.676;23.238;2023-06-26T04:55:10;22.87;68.82
66752;SHT31;53663;42.676;23.238;2023-06-26T04:57:35;23.79;66.26
66752;SHT31;53663;42.676;23.238;2023-06-26T05:00:02;24.34;63.82
66752;SHT31;53663;42.676;23.238;2023-06-26T05:02:28;23.94;64.61
66752;SHT31;53663;42.676;23.238;2023-06-26T05:04:54;23.77;65.01
66752;SHT31;53663;42.676;23.238;2023-06-26T05:07:20;23.61;64.96
66752;SHT31;53663;42.676;23.238;2023-06-26T05:09:45;23.14;66.13
66752;SHT31;53663;42.676;23.238;2023-06-26T05:12:11;23.12;66.13
66752;SHT31;53663;42.676;23.238;2023-06-26T05:14:38;23.00;66.73
66752;SHT31;53663;42.676;23.238;2023-06-26T05:17:03;23.01;66.98
66752;SHT31;53663;42.676;23.238;2023-06-26T05:19:29;22.97;66.75
66752;SHT31;53663;42.676;23.238;2023-06-26T05:21:55;23.26;66.90
66752;SHT31;53663;42.676;23.238;2023-06-26T05:24:21;23.53;65.78
66752;SHT31;53663;42.676;23.238;2023-06-26T05:26:48;23.37;65.66
66752;SHT31;53663;42.676;23.238;2023-06-26T05:29:14;23.31;66.01
66752;SHT31;53663;42.676;23.238;2023-06-26T05:31:41;23.14;66.89
66752;SHT31;53663;42.676;23.238;2023-06-26T05:34:07;22.91;67.11
66752;SHT31;53663;42.676;23.238;2023-06-26T05:36:34;22.70;67.18
66752;SHT31;53663;42.676;23.238;2023-06-26T05:39:00;22.43;68.11
66752;SHT31;53663;42.676;23.238;2023-06-26T05:41:26;22.32;68.81
66752;SHT31;53663;42.676;23.238;2023-06-26T05:43:51;22.15;69.07
66752;SHT31;53663;42.676;23.238;2023-06-26T05:46:19;22.09;69.54
66752;SHT31;53663;42.676;23.238;2023-06-26T05:48:45;22.22;69.76
66752;SHT31;53663;42.676;23.238;2023-06-26T05:51:11;22.36;69.27
66752;SHT31;53663;42.676;23.238;2023-06-26T05:53:37;22.45;68.96
66752;SHT31;53663;42.676;23.238;2023-06-26T05:56:04;22.42;69.29
66752;SHT31;53663;42.676;23.238;2023-06-26T05:58:29;22.42;69.19
66752;SHT31;53663;42.676;23.238;2023-06-26T06:00:55;22.56;68.88
66752;SHT31;53663;42.676;23.238;2023-06-26T06:03:21;22.73;68.59
66752;SHT31;53663;42.676;23.238;2023-06-26T06:05:46;22.90;68.20
66752;SHT31;53663;42.676;23.238;2023-06-26T06:08:12;22.98;67.89
66752;SHT31;53663;42.676;23.238;2023-06-26T06:10:38;23.01;67.55
66752;SHT31;53663;42.676;23.238;2023-06-26T06:13:03;23.18;67.31
66752;SHT31;53663;42.676;23.238;2023-06-26T06:15:29;23.31;66.62
66752;SHT31;53663;42.676;23.238;2023-06-26T06:17:54;23.35;66.19
66752;SHT31;53663;42.676;23.238;2023-06-26T06:20:20;23.74;65.38
66752;SHT31;53663;42.676;23.238;2023-06-26T06:22:45;23.89;63.91
66752;SHT31;53663;42.676;23.238;2023-06-26T06:25:11;24.14;64.00
66752;SHT31;53663;42.676;23.238;2023-06-26T06:27:36;24.59;63.03
66752;SHT31;53663;42.676;23.238;2023-06-26T06:30:02;24.82;61.25
66752;SHT31;53663;42.676;23.238;2023-06-26T06:32:28;25.28;60.69
66752;SHT31;53663;42.676;23.238;2023-06-26T06:34:53;25.36;61.16
66752;SHT31;53663;42.676;23.238;2023-06-26T06:37:19;25.54;59.76
66752;SHT31;53663;42.676;23.238;2023-06-26T06:39:44;25.58;60.35
66752;SHT31;53663;42.676;23.238;2023-06-26T06:42:10;25.63;59.17
66752;SHT31;53663;42.676;23.238;2023-06-26T06:44:35;25.68;59.28
66752;SHT31;53663;42.676;23.238;2023-06-26T06:47:01;26.02;58.88
66752;SHT31;53663;42.676;23.238;2023-06-26T06:49:26;26.49;57.90
66752;SHT31;53663;42.676;23.238;2023-06-26T06:51:52;26.71;57.14
66752;SHT31;53663;42.676;23.238;2023-06-26T06:54:17;27.11;55.64
66752;SHT31;53663;42.676;23.238;2023-06-26T06:56:43;27.60;55.05
66752;SHT31;53663;42.676;23.238;2023-06-26T06:59:09;27.69;54.35
66752;SHT31;53663;42.676;23.238;2023-06-26T07:01:34;27.62;53.67
66752;SHT31;53663;42.676;23.238;2023-06-26T07:04:00;27.49;53.61
66752;SHT31;53663;42.676;23.238;2023-06-26T07:06:25;27.46;55.20
66752;SHT31;53663;42.676;23.238;2023-06-26T07:08:51;27.08;55.14
66752;SHT31;53663;42.676;23.238;2023-06-26T07:11:17;26.86;54.96
66752;SHT31;53663;42.676;23.238;2023-06-26T07:13:42;26.81;55.36
66752;SHT31;53663;42.676;23.238;2023-06-26T07:16:08;27.11;54.64
66752;SHT31;53663;42.676;23.238;2023-06-26T07:18:37;27.53;53.18
66752;SHT31;53663;42.676;23.238;2023-06-26T07:21:02;27.43;51.39
66752;SHT31;53663;42.676;23.238;2023-06-26T07:23:28;27.73;52.25
66752;SHT31;53663;42.676;23.238;2023-06-26T07:25:53;28.13;51.81
66752;SHT31;53663;42.676;23.238;2023-06-26T07:28:19;27.90;50.92
66752;SHT31;53663;42.676;23.238;2023-06-26T07:30:44;27.83;51.56
66752;SHT31;53663;42.676;23.238;2023-06-26T07:33:10;27.92;51.86
66752;SHT31;53663;42.676;23.238;2023-06-26T07:35:36;28.07;51.44
66752;SHT31;53663;42.676;23.238;2023-06-26T07:38:01;28.35;50.47
66752;SHT31;53663;42.676;23.238;2023-06-26T07:40:27;28.14;50.63
66752;SHT31;53663;42.676;23.238;2023-06-26T07:42:53;27.92;51.94
66752;SHT31;53663;42.676;23.238;2023-06-26T07:45:19;27.59;51.97
66752;SHT31;53663;42.676;23.238;2023-06-26T07:47:45;27.74;50.74
66752;SHT31;53663;42.676;23.238;2023-06-26T07:50:10;27.79;51.62
66752;SHT31;53663;42.676;23.238;2023-06-26T07:52:36;27.56;49.56
66752;SHT31;53663;42.676;23.238;2023-06-26T07:55:02;27.71;49.27
66752;SHT31;53663;42.676;23.238;2023-06-26T07:57:29;27.56;49.54
66752;SHT31;53663;42.676;23.238;2023-06-26T07:59:55;27.52;50.86
66752;SHT31;53663;42.676;23.238;2023-06-26T08:02:21;27.82;50.04
66752;SHT31;53663;42.676;23.238;2023-06-26T08:04:46;27.87;50.95
66752;SHT31;53663;42.676;23.238;2023-06-26T08:07:12;27.98;50.07
66752;SHT31;53663;42.676;23.238;2023-06-26T08:09:39;27.92;51.04
66752;SHT31;53663;42.676;23.238;2023-06-26T08:12:05;28.25;50.59
66752;SHT31;53663;42.676;23.238;2023-06-26T08:14:30;28.41;49.59
66752;SHT31;53663;42.676;23.238;2023-06-26T08:16:57;28.48;50.88
66752;SHT31;53663;42.676;23.238;2023-06-26T08:19:22;28.55;48.68
66752;SHT31;53663;42.676;23.238;2023-06-26T08:21:48;28.14;49.72
66752;SHT31;53663;42.676;23.238;2023-06-26T08:24:14;28.04;48.91
66752;SHT31;53663;42.676;23.238;2023-06-26T08:26:44;27.90;49.51
66752;SHT31;53663;42.676;23.238;2023-06-26T08:29:10;28.16;49.68
66752;SHT31;53663;42.676;23.238;2023-06-26T08:31:35;27.85;49.26
66752;SHT31;53663;42.676;23.238;2023-06-26T08:34:02;28.10;49.06
66752;SHT31;53663;42.676;23.238;2023-06-26T08:36:27;28.51;49.90
66752;SHT31;53663;42.676;23.238;2023-06-26T08:38:53;28.68;49.27
66752;SHT31;53663;42.676;23.238;2023-06-26T08:41:19;28.27;47.47
66752;SHT31;53663;42.676;23.238;2023-06-26T08:43:45;28.29;47.06
66752;SHT31;53663;42.676;23.238;2023-06-26T08:46:10;28.40;48.49
66752;SHT31;53663;42.676;23.238;2023-06-26T08:48:37;27.98;49.12
66752;SHT31;53663;42.676;23.238;2023-06-26T08:51:09;27.93;49.20
66752;SHT31;53663;42.676;23.238;2023-06-26T08:53:52;28.47;48.97
66752;SHT31;53663;42.676;23.238;2023-06-26T08:56:22;28.69;47.72
66752;SHT31;53663;42.676;23.238;2023-06-26T08:58:49;28.55;46.95
66752;SHT31;53663;42.676;23.238;2023-06-26T09:01:15;28.44;46.84
66752;SHT31;53663;42.676;23.238;2023-06-26T09:03:40;28.66;46.51
66752;SHT31;53663;42.676;23.238;2023-06-26T09:06:09;29.03;48.18
66752;SHT31;53663;42.676;23.238;2023-06-26T09:08:35;29.29;46.09
66752;SHT31;53663;42.676;23.238;2023-06-26T09:11:00;29.22;45.52
66752;SHT31;53663;42.676;23.238;2023-06-26T09:13:29;28.85;45.68
66752;SHT31;53663;42.676;23.238;2023-06-26T09:15:55;28.35;46.39
66752;SHT31;53663;42.676;23.238;2023-06-26T09:18:21;28.16;47.54
66752;SHT31;53663;42.676;23.238;2023-06-26T09:20:47;28.10;47.49
66752;SHT31;53663;42.676;23.238;2023-06-26T09:23:13;27.98;48.46
66752;SHT31;53663;42.676;23.238;2023-06-26T09:25:40;28.22;49.45
66752;SHT31;53663;42.676;23.238;2023-06-26T09:28:06;28.43;49.45
66752;SHT31;53663;42.676;23.238;2023-06-26T09:30:32;28.76;47.48
66752;SHT31;53663;42.676;23.238;2023-06-26T09:33:13;29.10;46.86
66752;SHT31;53663;42.676;23.238;2023-06-26T09:35:39;28.82;45.70
66752;SHT31;53663;42.676;23.238;2023-06-26T09:38:04;29.06;46.07
66752;SHT31;53663;42.676;23.238;2023-06-26T09:40:30;29.30;45.03
66752;SHT31;53663;42.676;23.238;2023-06-26T09:43:05;29.24;44.29
66752;SHT31;53663;42.676;23.238;2023-06-26T09:45:34;29.58;45.32
66752;SHT31;53663;42.676;23.238;2023-06-26T09:48:04;29.72;45.63
66752;SHT31;53663;42.676;23.238;2023-06-26T09:50:32;29.74;42.80
66752;SHT31;53663;42.676;23.238;2023-06-26T09:53:07;29.41;42.92
66752;SHT31;53663;42.676;23.238;2023-06-26T09:55:36;29.04;43.07
66752;SHT31;53663;42.676;23.238;2023-06-26T09:58:05;28.92;43.11
66752;SHT31;53663;42.676;23.238;2023-06-26T10:00:32;29.02;42.72
66752;SHT31;53663;42.676;23.238;2023-06-26T10:03:01;29.02;44.43
66752;SHT31;53663;42.676;23.238;2023-06-26T10:05:27;29.26;44.81
66752;SHT31;53663;42.676;23.238;2023-06-26T10:07:53;29.51;44.20
66752;SHT31;53663;42.676;23.238;2023-06-26T10:10:21;29.84;41.79
66752;SHT31;53663;42.676;23.238;2023-06-26T10:12:49;29.98;41.93
66752;SHT31;53663;42.676;23.238;2023-06-26T10:15:17;29.88;42.09
66752;SHT31;53663;42.676;23.238;2023-06-26T10:17:44;29.64;42.46
66752;SHT31;53663;42.676;23.238;2023-06-26T10:20:13;29.70;41.93
66752;SHT31;53663;42.676;23.238;2023-06-26T10:22:46;30.02;42.44
66752;SHT31;53663;42.676;23.238;2023-06-26T10:25:18;30.19;42.14
66752;SHT31;53663;42.676;23.238;2023-06-26T10:27:50;30.06;42.34
66752;SHT31;53663;42.676;23.238;2023-06-26T10:30:20;29.98;42.49
66752;SHT31;53663;42.676;23.238;2023-06-26T10:32:47;29.68;44.59
66752;SHT31;53663;42.676;23.238;2023-06-26T10:35:13;29.07;43.78
66752;SHT31;53663;42.676;23.238;2023-06-26T10:37:43;28.95;44.41
66752;SHT31;53663;42.676;23.238;2023-06-26T10:40:09;29.09;42.65
66752;SHT31;53663;42.676;23.238;2023-06-26T10:42:37;29.07;44.77
66752;SHT31;53663;42.676;23.238;2023-06-26T10:45:27;29.22;43.43
66752;SHT31;53663;42.676;23.238;2023-06-26T10:47:53;29.22;42.73
66752;SHT31;53663;42.676;23.238;2023-06-26T10:50:28;29.10;43.49
66752;SHT31;53663;42.676;23.238;2023-06-26T10:55:33;28.43;43.44
66752;SHT31;53663;42.676;23.238;2023-06-26T10:57:59;28.38;43.95
66752;SHT31;53663;42.676;23.238;2023-06-26T11:00:24;28.58;44.72
66752;SHT31;53663;42.676;23.238;2023-06-26T11:02:50;28.62;43.98
66752;SHT31;53663;42.676;23.238;2023-06-26T11:05:29;28.28;44.02
66752;SHT31;53663;42.676;23.238;2023-06-26T11:08:08;28.20;46.19
66752;SHT31;53663;42.676;23.238;2023-06-26T11:10:53;28.55;45.05
66752;SHT31;53663;42.676;23.238;2023-06-26T11:13:20;28.27;46.68
66752;SHT31;53663;42.676;23.238;2023-06-26T11:15:46;27.89;46.04
66752;SHT31;53663;42.676;23.238;2023-06-26T11:18:13;27.80;46.15
66752;SHT31;53663;42.676;23.238;2023-06-26T11:20:39;27.62;47.36
66752;SHT31;53663;42.676;23.238;2023-06-26T11:23:04;27.59;46.47
66752;SHT31;53663;42.676;23.238;2023-06-26T11:25:36;27.19;46.74
66752;SHT31;53663;42.676;23.238;2023-06-26T11:28:03;27.28;47.03
66752;SHT31;53663;42.676;23.238;2023-06-26T11:30:29;27.53;45.24
66752;SHT31;53663;42.676;23.238;2023-06-26T11:33:06;27.77;45.16
66752;SHT31;53663;42.676;23.238;2023-06-26T11:35:33;27.69;44.75
66752;SHT31;53663;42.676;23.238;2023-06-26T11:38:02;27.65;45.79
66752;SHT31;53663;42.676;23.238;2023-06-26T11:40:35;27.76;46.30
66752;SHT31;53663;42.676;23.238;2023-06-26T11:43:02;27.83;45.81
66752;SHT31;53663;42.676;23.238;2023-06-26T11:45:29;28.03;45.73
66752;SHT31;53663;42.676;23.238;2023-06-26T11:47:56;28.14;44.48
66752;SHT31;53663;42.676;23.238;2023-06-26T11:50:22;28.11;45.19
66752;SHT31;53663;42.676;23.238;2023-06-26T11:52:56;28.17;45.26
66752;SHT31;53663;42.676;23.238;2023-06-26T11:55:26;28.61;43.95
66752;SHT31;53663;42.676;23.238;2023-06-26T11:57:56;28.98;43.01
66752;SHT31;53663;42.676;23.238;2023-06-26T12:00:22;29.24;43.04
66752;SHT31;53663;42.676;23.238;2023-06-26T12:02:48;29.33;43.49
66752;SHT31;53663;42.676;23.238;2023-06-26T12:05:18;28.96;42.87
66752;SHT31;53663;42.676;23.238;2023-06-26T12:07:46;28.80;43.69
66752;SHT31;53663;42.676;23.238;2023-06-26T12:10:13;28.83;44.18
66752;SHT31;53663;42.676;23.238;2023-06-26T12:12:40;29.14;45.61
66752;SHT31;53663;42.676;23.238;2023-06-26T12:15:07;29.02;42.35
66752;SHT31;53663;42.676;23.238;2023-06-26T12:17:33;28.78;43.34
66752;SHT31;53663;42.676;23.238;2023-06-26T12:19:58;28.61;43.05
66752;SHT31;53663;42.676;23.238;2023-06-26T12:22:33;28.41;42.73
66752;SHT31;53663;42.676;23.238;2023-06-26T12:24:59;28.00;43.68
66752;SHT31;53663;42.676;23.238;2023-06-26T12:27:25;27.66;44.18
66752;SHT31;53663;42.676;23.238;2023-06-26T12:29:54;27.39;45.73
66752;SHT31;53663;42.676;23.238;2023-06-26T12:32:24;27.21;45.67
66752;SHT31;53663;42.676;23.238;2023-06-26T12:34:51;27.27;46.16
66752;SHT31;53663;42.676;23.238;2023-06-26T12:37:17;27.32;47.23
66752;SHT31;53663;42.676;23.238;2023-06-26T12:39:47;27.19;46.58
66752;SHT31;53663;42.676;23.238;2023-06-26T12:42:15;27.18;47.68
66752;SHT31;53663;42.676;23.238;2023-06-26T12:44:41;27.37;47.81
66752;SHT31;53663;42.676;23.238;2023-06-26T12:47:06;27.52;46.57
66752;SHT31;53663;42.676;23.238;2023-06-26T12:49:33;27.66;45.10
66752;SHT31;53663;42.676;23.238;2023-06-26T12:52:00;27.93;46.28
66752;SHT31;53663;42.676;23.238;2023-06-26T12:54:26;27.97;46.79
66752;SHT31;53663;42.676;23.238;2023-06-26T12:56:52;28.14;46.51
66752;SHT31;53663;42.676;23.238;2023-06-26T12:59:17;28.08;46.03
66752;SHT31;53663;42.676;23.238;2023-06-26T13:01:43;28.14;47.23
66752;SHT31;53663;42.676;23.238;2023-06-26T13:04:09;28.06;48.27
66752;SHT31;53663;42.676;23.238;2023-06-26T13:06:36;28.17;46.88
66752;SHT31;53663;42.676;23.238;2023-06-26T13:09:02;28.16;46.50
66752;SHT31;53663;42.676;23.238;2023-06-26T13:11:31;28.18;48.09
66752;SHT31;53663;42.676;23.238;2023-06-26T13:13:57;27.98;47.41
66752;SHT31;53663;42.676;23.238;2023-06-26T13:16:23;28.20;47.34
66752;SHT31;53663;42.676;23.238;2023-06-26T13:18:48;28.34;47.04
66752;SHT31;53663;42.676;23.238;2023-06-26T13:21:14;28.38;45.24
66752;SHT31;53663;42.676;23.238;2023-06-26T13:23:40;28.13;44.62
66752;SHT31;53663;42.676;23.238;2023-06-26T13:26:06;28.17;45.03
66752;SHT31;53663;42.676;23.238;2023-06-26T13:28:32;28.18;45.99
66752;SHT31;53663;42.676;23.238;2023-06-26T13:30:58;28.31;45.39
66752;SHT31;53663;42.676;23.238;2023-06-26T13:33:23;28.33;44.91
66752;SHT31;53663;42.676;23.238;2023-06-26T13:35:53;28.31;44.68
66752;SHT31;53663;42.676;23.238;2023-06-26T13:38:20;28.25;45.04
66752;SHT31;53663;42.676;23.238;2023-06-26T13:40:53;28.34;45.88
66752;SHT31;53663;42.676;23.238;2023-06-26T13:43:21;28.24;44.03
66752;SHT31;53663;42.676;23.238;2023-06-26T13:45:48;28.04;44.67
66752;SHT31;53663;42.676;23.238;2023-06-26T13:48:14;28.11;45.14
66752;SHT31;53663;42.676;23.238;2023-06-26T13:50:39;28.03;45.17
66752;SHT31;53663;42.676;23.238;2023-06-26T13:53:05;27.83;46.15
66752;SHT31;53663;42.676;23.238;2023-06-26T13:55:32;27.86;46.19
66752;SHT31;53663;42.676;23.238;2023-06-26T13:57:58;27.66;46.03
66752;SHT31;53663;42.676;23.238;2023-06-26T14:00:24;27.50;46.91
66752;SHT31;53663;42.676;23.238;2023-06-26T14:02:51;27.19;47.67
66752;SHT31;53663;42.676;23.238;2023-06-26T14:05:17;26.91;47.44
66752;SHT31;53663;42.676;23.238;2023-06-26T14:07:44;27.02;47.25
66752;SHT31;53663;42.676;23.238;2023-06-26T14:10:10;27.16;46.29
66752;SHT31;53663;42.676;23.238;2023-06-26T14:12:36;27.34;46.84
66752;SHT31;53663;42.676;23.238;2023-06-26T14:15:01;27.46;46.14
66752;SHT31;53663;42.676;23.238;2023-06-26T14:17:28;27.42;45.97
66752;SHT31;53663;42.676;23.238;2023-06-26T14:19:54;27.43;45.95
66752;SHT31;53663;42.676;23.238;2023-06-26T14:22:20;27.37;46.29
66752;SHT31;53663;42.676;23.238;2023-06-26T14:24:46;27.24;46.22
66752;SHT31;53663;42.676;23.238;2023-06-26T14:27:11;27.19;46.58
66752;SHT31;53663;42.676;23.238;2023-06-26T14:29:37;27.22;47.41
66752;SHT31;53663;42.676;23.238;2023-06-26T14:32:03;27.21;46.71
66752;SHT31;53663;42.676;23.238;2023-06-26T14:34:29;27.15;47.10
66752;SHT31;53663;42.676;23.238;2023-06-26T14:36:55;27.18;46.79
66752;SHT31;53663;42.676;23.238;2023-06-26T14:39:20;27.14;47.18
66752;SHT31;53663;42.676;23.238;2023-06-26T14:41:46;27.18;47.92
66752;SHT31;53663;42.676;23.238;2023-06-26T14:44:14;27.18;46.69
66752;SHT31;53663;42.676;23.238;2023-06-26T14:46:39;27.21;46.52
66752;SHT31;53663;42.676;23.238;2023-06-26T14:49:05;27.28;46.31
66752;SHT31;53663;42.676;23.238;2023-06-26T14:51:30;27.27;46.26
66752;SHT31;53663;42.676;23.238;2023-06-26T14:53:56;27.25;46.10
66752;SHT31;53663;42.676;23.238;2023-06-26T14:56:21;27.24;47.15
66752;SHT31;53663;42.676;23.238;2023-06-26T14:58:47;27.10;47.19
66752;SHT31;53663;42.676;23.238;2023-06-26T15:01:13;27.02;47.45
66752;SHT31;53663;42.676;23.238;2023-06-26T15:03:41;26.87;48.35
66752;SHT31;53663;42.676;23.238;2023-06-26T15:06:07;26.67;49.06
66752;SHT31;53663;42.676;23.238;2023-06-26T15:08:34;26.42;50.78
66752;SHT31;53663;42.676;23.238;2023-06-26T15:11:01;25.96;52.35
66752;SHT31;53663;42.676;23.238;2023-06-26T15:13:27;25.65;53.57
66752;SHT31;53663;42.676;23.238;2023-06-26T15:15:52;25.73;53.68
66752;SHT31;53663;42.676;23.238;2023-06-26T15:18:18;25.54;54.33
66752;SHT31;53663;42.676;23.238;2023-06-26T15:20:43;25.20;55.39